CEFAS Endeavour — VQHF3 — position and weather

sailwx.info

Track history (hours):
 
Tides and Currents Weather Stations Pressure Air Temp Water Temp Dewpoint Dewpoint Depression Visibility Wind Speed Wind Dir Waves Ship Positions

Oceanographic research ship CEFAS Endeavour (UK)

Detailed information on ship capabilities available from University of Delaware's Ocean Information Center.

Last reported at 2015-Mar-05 22:28 UTC. Time now 2015-Mar-06 12:37 UTC.
Position N 49°00' W 002°29'.

Length 74 m; draft 8.4 m.

Type: Cargo ship. MMSI: 235005270.

Date/timePositionNaut miles runAvg speedWind from/ knotsBaromVisibWave heightAir tempDewpointWater temp
2015-Mar-05 22:28N 49°00' W 002°29'6 6.5
2015-Mar-05 21:33N 48°55' W 002°23'7 6.6
2015-Mar-05 20:30N 48°50' W 002°16'6 5.4
2015-Mar-05 19:24N 48°47' W 002°09'4 3.1
2015-Mar-05 18:06N 48°49' W 002°14'1113.4
2015-Mar-05 17:17N 48°58' W 002°24'  
2015-Mar-03 03:31N 50°17' W 003°24'4 4.1
2015-Mar-03 02:33N 50°21' W 003°21'4 3.9
2015-Mar-03 01:33N 50°24' W 003°19'3 3.5
2015-Mar-03 00:33N 50°24' W 003°13'5 4.6
2015-Mar-02 23:33N 50°24' W 003°06'5 5.1
2015-Mar-02 22:33N 50°24' W 002°58'29 5.6
2015-Mar-02 17:25N 50°24' W 002°13'6 6.4
2015-Mar-02 16:32N 50°26' W 002°21'22 5.5
2015-Mar-02 12:31N 50°20' W 002°55'1010.5
2015-Mar-02 11:33N 50°15' W 003°09'7 0.6
2015-Mar-02 00:32N 50°15' W 003°20'9 8.0
2015-Mar-01 23:28N 50°21' W 003°10'7 8.2
2015-Mar-01 22:33N 50°26' W 003°01'8 8.3
2015-Mar-01 21:33N 50°31' W 002°52'7 2.8
2015-Mar-01 19:03N 50°36' W 003°00'2 4.2
2015-Mar-01 18:32N 50°36' W 003°04'3 3.6
2015-Mar-01 17:33N 50°33' W 003°07'1 1.0
2015-Mar-01 16:33N 50°34' W 003°08'2 1.6
2015-Mar-01 15:33N 50°34' W 003°05'4 3.7
2015-Mar-01 14:33N 50°37' W 003°08'2 2.3
2015-Mar-01 13:33N 50°37' W 003°11'5 5.1
2015-Mar-01 12:33N 50°33' W 003°15'6 6.2
2015-Mar-01 11:33N 50°27' W 003°20'4 4.5
2015-Mar-01 10:33N 50°24' W 003°25'2 2.4
2015-Mar-01 09:33N 50°25' W 003°28'5 4.5
2015-Mar-01 08:33N 50°21' W 003°24'4 3.5
2015-Mar-01 07:33N 50°19' W 003°20'4 3.7
2015-Mar-01 06:33N 50°20' W 003°14'2 2.0
2015-Mar-01 05:33N 50°20' W 003°11'1 1.3
2015-Mar-01 04:33N 50°19' W 003°12'5 5.4
2015-Mar-01 03:33N 50°17' W 003°20'6 5.3
2015-Mar-01 02:28N 50°14' W 003°27'12 6.0
2015-Mar-01 00:25N 50°07' W 003°44'23 5.8
2015-Feb-28 20:31N 50°16' W 004°16'2 2.5
2015-Feb-28 19:33N 50°17' W 004°20'  
2015-Feb-26 14:28N 50°31' W 005°41'8 8.9
2015-Feb-26 13:32N 50°35' W 005°30'8 8.5
2015-Feb-26 12:33N 50°40' W 005°19'9 8.3
2015-Feb-26 11:27N 50°45' W 005°07'  
Track history (hours):
 
Tides and Currents Weather Stations Pressure Air Temp Water Temp Dewpoint Dewpoint Depression Visibility Wind Speed Wind Dir Waves Ship Positions

Oceanographic research ship CEFAS Endeavour (UK)

Detailed information on ship capabilities available from University of Delaware's Ocean Information Center.

Last reported at 2015-Mar-05 22:28 UTC. Time now 2015-Mar-06 12:37 UTC.
Position N 49°00' W 002°29'.

Length 74 m; draft 8.4 m.

Type: Cargo ship. MMSI: 235005270.

Date/timePositionNaut miles runAvg speedWind from/ knotsBaromVisibWave heightAir tempDewpointWater temp
2015-Mar-05 22:28N 49°00' W 002°29'6 6.5
2015-Mar-05 21:33N 48°55' W 002°23'7 6.6
2015-Mar-05 20:30N 48°50' W 002°16'6 5.4
2015-Mar-05 19:24N 48°47' W 002°09'4 3.1
2015-Mar-05 18:06N 48°49' W 002°14'1113.4
2015-Mar-05 17:17N 48°58' W 002°24'  
2015-Mar-03 03:31N 50°17' W 003°24'4 4.1
2015-Mar-03 02:33N 50°21' W 003°21'4 3.9
2015-Mar-03 01:33N 50°24' W 003°19'3 3.5
2015-Mar-03 00:33N 50°24' W 003°13'5 4.6
2015-Mar-02 23:33N 50°24' W 003°06'5 5.1
2015-Mar-02 22:33N 50°24' W 002°58'29 5.6
2015-Mar-02 17:25N 50°24' W 002°13'6 6.4
2015-Mar-02 16:32N 50°26' W 002°21'22 5.5
2015-Mar-02 12:31N 50°20' W 002°55'1010.5
2015-Mar-02 11:33N 50°15' W 003°09'7 0.6
2015-Mar-02 00:32N 50°15' W 003°20'9 8.0
2015-Mar-01 23:28N 50°21' W 003°10'7 8.2
2015-Mar-01 22:33N 50°26' W 003°01'8 8.3
2015-Mar-01 21:33N 50°31' W 002°52'7 2.8
2015-Mar-01 19:03N 50°36' W 003°00'2 4.2
2015-Mar-01 18:32N 50°36' W 003°04'3 3.6
2015-Mar-01 17:33N 50°33' W 003°07'1 1.0
2015-Mar-01 16:33N 50°34' W 003°08'2 1.6
2015-Mar-01 15:33N 50°34' W 003°05'4 3.7
2015-Mar-01 14:33N 50°37' W 003°08'2 2.3
2015-Mar-01 13:33N 50°37' W 003°11'5 5.1
2015-Mar-01 12:33N 50°33' W 003°15'6 6.2
2015-Mar-01 11:33N 50°27' W 003°20'4 4.5
2015-Mar-01 10:33N 50°24' W 003°25'2 2.4
2015-Mar-01 09:33N 50°25' W 003°28'5 4.5
2015-Mar-01 08:33N 50°21' W 003°24'4 3.5
2015-Mar-01 07:33N 50°19' W 003°20'4 3.7
2015-Mar-01 06:33N 50°20' W 003°14'2 2.0
2015-Mar-01 05:33N 50°20' W 003°11'1 1.3
2015-Mar-01 04:33N 50°19' W 003°12'5 5.4
2015-Mar-01 03:33N 50°17' W 003°20'6 5.3
2015-Mar-01 02:28N 50°14' W 003°27'12 6.0
2015-Mar-01 00:25N 50°07' W 003°44'23 5.8
2015-Feb-28 20:31N 50°16' W 004°16'2 2.5
2015-Feb-28 19:33N 50°17' W 004°20'  
2015-Feb-26 14:28N 50°31' W 005°41'8 8.9
2015-Feb-26 13:32N 50°35' W 005°30'8 8.5
2015-Feb-26 12:33N 50°40' W 005°19'9 8.3
2015-Feb-26 11:27N 50°45' W 005°07'  

Dump ship's entire track history